Terminal Aerodrome Forecast
Issued by NWS Louisville, KY

Home | Current Version | Previous Version | Text Only | Print | Product List | Glossary On
Versions: 1 2 3 4 5 6 7 8 9 10 11 12 13
000
FTUS43 KLMK 251100 RRA
TAFLEX
TAF
KLEX 251148Z 2512/2612 12010KT 6SM -SHRA BKN025
     FM251400 10008KT 5SM -SHRA VCTS BKN012CB
     FM251700 09007KT 5SM BR VCSH BKN009
     FM252300 08010KT P6SM VCTS BKN012CB
     FM260400 05011KT P6SM VCSH BKN010=

USA.gov is the U.S. government's official web portal to all federal, state and local government web resources and services.